Pick City, North Dakota
Current Conditions -  °F | °C
As of 12:55 PM on Wednesday 17 Dec 2014 (Local Time) from KHZE Reporting Station
Broken Clouds Broken Clouds  
Wind Chill:   Ceiling: 1600
Heat Index: 18°   Visibility: 10mi
Dew Point: 10°   Wind: 9mph
Humidity: 73%   Direction: 140°SE
Pressure: 30.19"   Gusts: NA
Location:  47.396°N, 101.602°W
Report Text: KHZE 171955Z AUTO 14008KT 10SM BKN016 M08/M12 A3019 RMK AO2
Loading
Personal Weather Stations






























Interactive Weather Map New forecast layout! Learn more

10-Day Weather Forecast

Advertisements
Track Severe Weather on mobile